DTTZ

Tozeur Nefta International Airport

Tozeur, Tunisia

DTTZ 110800Z 14011KT CAVOK 08/02 Q1017 NOSIG

Observed Flight Rules
Dec-11 @ 08:00 UTC (an hour ago) Visual Flight Rules
Wind Visibility Clouds
140° at 11 knots 10,000+ meters
  • Clear skies
Temperatures Readings
Current 8°C / 46°F
Dewpoint 2°C / 36°F
Humidity 66%
Altimeter 30.03" Hg
Pressure 1017 hPa
Elevation 93
Observed Flight Rules
Dec-11 @ 08:00 UTC
(an hour ago)
VFR
Wind Visibility
140° at 11 knots 10,000+ meters
Clouds
  • Clear skies
Temperature Dewpoint
8°C / 46°F 2°C / 36°F
Humidity Altimeter Pressure
66% 30.03" Hg 1017 hPa